Arlington, Ohio
Current Conditions -  °F | °C
As of 11:53 PM on Sunday 21 Dec 2014 (Local Time) from KFDY Reporting Station
Clear Clear  
Wind Chill: 21°   Ceiling: Unl
Heat Index: 29°   Visibility: 7mi
Dew Point: 22°   Wind: 8mph
Humidity: 75%   Direction: 110°ESE
Pressure: 30.14"   Gusts: NA
Location:  40.89°N, 83.65°W
Report Text: KFDY 220453Z AUTO 11007KT 7SM CLR M02/M06 A3014 RMK AO2 SLP212 T10171056 400221067
Loading
Personal Weather Stations






























Interactive Weather Map New forecast layout! Learn more

10-Day Weather Forecast

Advertisements
Track Severe Weather on mobile